createdAt,value
2023-06-10T00:04:04.575Z,9.17
2023-06-10T00:10:07.059Z,6.85
2023-06-10T00:16:09.895Z,9.23
2023-06-10T00:22:11.876Z,9.98
2023-06-10T00:28:14.468Z,7.60
2023-06-10T00:34:16.084Z,6.63
2023-06-10T00:40:17.615Z,7.72
2023-06-10T00:46:19.944Z,8.53
2023-06-10T00:52:23.115Z,8.45
2023-06-10T00:58:25.185Z,6.85
2023-06-10T01:04:26.702Z,9.00
2023-06-10T01:10:34.608Z,7.85
2023-06-10T01:16:38.069Z,10.17
2023-06-10T01:22:39.636Z,8.77
2023-06-10T01:28:48.827Z,8.40
2023-06-10T01:34:51.415Z,7.83
2023-06-10T01:40:54.353Z,9.75
2023-06-10T01:46:56.197Z,13.20
2023-06-10T01:52:58.365Z,13.23
2023-06-10T01:59:02.515Z,12.68
2023-06-10T02:05:04.596Z,9.37
2023-06-10T02:11:06.140Z,11.52
2023-06-10T02:17:08.011Z,11.73
2023-06-10T02:23:09.521Z,11.00
2023-06-10T02:29:12.112Z,12.25
2023-06-10T02:35:13.854Z,10.37
2023-06-10T02:41:15.964Z,13.43
2023-06-10T02:47:18.625Z,10.23
2023-06-10T02:53:20.356Z,9.40
2023-06-10T02:59:29.683Z,10.60
2023-06-10T03:05:31.378Z,10.37
2023-06-10T03:11:36.598Z,10.27
2023-06-10T03:17:39.001Z,10.50
2023-06-10T03:23:40.925Z,12.82
2023-06-10T03:29:44.206Z,9.35
2023-06-10T03:35:46.011Z,11.47
2023-06-10T03:41:48.919Z,9.57
2023-06-10T03:47:50.831Z,10.67
2023-06-10T03:53:56.856Z,7.90
2023-06-10T03:59:58.982Z,8.98
2023-06-10T04:06:02.041Z,10.87
2023-06-10T04:12:03.879Z,10.55
2023-06-10T04:18:07.762Z,12.00
2023-06-10T04:24:10.019Z,13.32
2023-06-10T04:30:12.779Z,10.43
2023-06-10T04:36:15.803Z,9.57
2023-06-10T04:42:17.806Z,11.18
2023-06-10T04:48:20.433Z,11.03
2023-06-10T04:54:22.666Z,9.57
2023-06-10T05:00:24.189Z,11.02
2023-06-10T05:06:25.619Z,9.87
2023-06-10T05:12:27.352Z,12.13
2023-06-10T05:18:28.958Z,12.37
2023-06-10T05:24:30.520Z,9.45
2023-06-10T05:30:32.143Z,11.98
2023-06-10T05:36:33.742Z,11.33
2023-06-10T05:42:35.422Z,11.90
2023-06-10T05:48:36.969Z,11.33
2023-06-10T05:54:38.436Z,10.02
2023-06-10T06:00:40.301Z,12.13
2023-06-10T06:06:41.874Z,12.03
2023-06-10T06:12:43.413Z,11.45
2023-06-10T06:18:45.071Z,12.57
2023-06-10T06:24:46.745Z,11.70
2023-06-10T06:30:48.288Z,11.90
2023-06-10T06:36:49.807Z,11.47
2023-06-10T06:42:52.739Z,14.18
2023-06-10T06:49:19.028Z,14.90
2023-06-10T06:55:20.530Z,12.25
2023-06-10T07:01:23.745Z,13.20
2023-06-10T07:07:25.741Z,12.70
2023-06-10T07:13:27.226Z,12.00
2023-06-10T07:19:29.214Z,12.43
2023-06-10T07:25:30.685Z,13.73
2023-06-10T07:31:32.316Z,13.45
2023-06-10T07:37:34.585Z,13.23
2023-06-10T07:43:36.141Z,13.30
2023-06-10T07:49:37.671Z,13.43
2023-06-10T07:55:39.539Z,14.68
2023-06-10T08:01:41.480Z,13.35
2023-06-10T08:07:43.330Z,14.23
2023-06-10T08:13:45.551Z,12.93
2023-06-10T08:19:48.026Z,13.33
2023-06-10T08:25:49.909Z,11.82
2023-06-10T08:31:51.546Z,13.98
2023-06-10T08:37:53.037Z,12.50
2023-06-10T08:44:09.026Z,11.98
2023-06-10T08:50:12.827Z,12.97
2023-06-10T08:56:16.611Z,14.70
2023-06-10T09:02:20.750Z,12.23
2023-06-10T09:08:22.635Z,12.43
2023-06-10T09:14:24.715Z,13.98
2023-06-10T09:20:26.378Z,11.10
2023-06-10T09:26:29.162Z,10.88
2023-06-10T09:32:31.353Z,10.50
2023-06-10T09:38:33.675Z,10.63
2023-06-10T09:44:35.216Z,11.60
2023-06-10T09:50:42.947Z,14.10
2023-06-10T09:56:47.573Z,12.70
2023-06-10T10:02:50.078Z,11.35
2023-06-10T10:08:51.926Z,12.90
2023-06-10T10:14:53.629Z,12.55
2023-06-10T10:20:56.475Z,13.47
2023-06-10T10:26:59.741Z,11.82
2023-06-10T10:33:10.284Z,10.27
2023-06-10T10:39:13.258Z,10.37
2023-06-10T10:45:16.492Z,12.18
2023-06-10T10:51:18.049Z,13.40
2023-06-10T10:57:20.745Z,12.00
2023-06-10T11:03:22.524Z,10.88
2023-06-10T11:09:31.159Z,11.40
2023-06-10T11:15:34.550Z,10.68
2023-06-10T11:21:54.779Z,11.27
2023-06-10T11:27:56.276Z,11.00
2023-06-10T11:33:58.859Z,11.23
2023-06-10T11:40:00.477Z,11.93
2023-06-10T11:46:03.154Z,12.85
2023-06-10T11:52:05.630Z,11.10
2023-06-10T11:58:13.212Z,12.50
2023-06-10T12:04:16.455Z,10.00
2023-06-10T12:10:27.097Z,11.40
2023-06-10T12:16:29.236Z,12.30
2023-06-10T12:22:44.285Z,10.70
2023-06-10T12:28:52.048Z,11.15
2023-06-10T12:35:04.351Z,10.00
2023-06-10T12:41:06.333Z,10.23
2023-06-10T12:47:11.448Z,9.80
2023-06-10T12:53:13.514Z,10.53
2023-06-10T12:59:15.598Z,11.00
2023-06-10T13:05:17.965Z,16.65
2023-06-10T13:11:21.026Z,11.70
2023-06-10T13:17:22.771Z,11.57
2023-06-10T13:23:24.349Z,13.67
2023-06-10T13:29:26.404Z,11.05
2023-06-10T13:35:27.916Z,11.95
2023-06-10T13:41:29.811Z,10.03
2023-06-10T13:47:31.880Z,6.88
2023-06-10T13:53:33.454Z,8.63
2023-06-10T13:59:35.400Z,6.63
2023-06-10T14:05:37.365Z,10.20
2023-06-10T14:11:38.859Z,5.60
2023-06-10T14:17:40.518Z,6.47
2023-06-10T14:23:44.217Z,6.63
2023-06-10T14:29:45.811Z,7.82
2023-06-10T14:35:47.340Z,7.97
2023-06-10T14:41:48.905Z,6.23
2023-06-10T14:47:50.497Z,5.70
2023-06-10T14:53:52.028Z,9.70
2023-06-10T14:59:53.975Z,7.63
2023-06-10T15:05:55.476Z,9.85
2023-06-10T15:11:57.102Z,9.93
2023-06-10T15:17:59.191Z,9.68
2023-06-10T15:24:00.808Z,11.57
2023-06-10T15:30:03.027Z,12.00
2023-06-10T15:36:07.104Z,10.63
2023-06-10T15:42:08.702Z,10.23
2023-06-10T15:48:10.397Z,11.30
2023-06-10T15:54:11.901Z,11.80
2023-06-10T16:00:13.712Z,10.32
2023-06-10T16:06:16.596Z,10.23
2023-06-10T16:12:18.161Z,10.70
2023-06-10T16:18:19.791Z,13.02
2023-06-10T16:24:21.685Z,10.00
2023-06-10T16:30:23.373Z,10.82
2023-06-10T16:36:24.874Z,10.77
2023-06-10T16:42:26.329Z,11.73
2023-06-10T16:48:27.807Z,12.02
2023-06-10T16:54:29.298Z,11.33
2023-06-10T17:00:30.977Z,12.18
2023-06-10T17:06:32.467Z,10.05
2023-06-10T17:12:34.010Z,13.67
2023-06-10T17:18:35.551Z,10.98
2023-06-10T17:24:38.254Z,10.47
2023-06-10T17:30:39.744Z,11.63
2023-06-10T17:36:41.283Z,10.75
2023-06-10T17:42:43.076Z,12.70
2023-06-10T17:48:44.585Z,12.32
2023-06-10T17:54:46.050Z,12.00
2023-06-10T18:00:48.074Z,10.65
2023-06-10T18:06:49.637Z,16.42
2023-06-10T18:12:51.268Z,15.23
2023-06-10T18:18:53.474Z,17.10
2023-06-10T18:24:55.106Z,16.43
2023-06-10T18:31:00.099Z,14.15
2023-06-10T18:37:02.526Z,12.45
2023-06-10T18:43:04.259Z,11.33
2023-06-10T18:49:05.886Z,20.77
2023-06-10T18:55:07.957Z,14.67
2023-06-10T19:01:10.168Z,12.77
2023-06-10T19:07:11.736Z,13.95
2023-06-10T19:13:13.247Z,15.50
2023-06-10T19:19:14.929Z,14.73
2023-06-10T19:25:16.444Z,12.53
2023-06-10T19:31:18.018Z,13.55
2023-06-10T19:37:19.716Z,12.98
2023-06-10T19:43:21.268Z,12.60
2023-06-10T19:49:22.821Z,13.85
2023-06-10T19:55:24.330Z,16.90
2023-06-10T20:01:25.958Z,24.67
2023-06-10T20:07:27.511Z,16.80
2023-06-10T20:13:30.073Z,12.60
2023-06-10T20:19:31.612Z,18.30
2023-06-10T20:25:34.776Z,11.93
2023-06-10T20:31:36.527Z,14.20
2023-06-10T20:37:38.064Z,13.52
2023-06-10T20:43:39.682Z,13.00
2023-06-10T20:49:41.383Z,13.18
2023-06-10T20:55:42.982Z,13.17
2023-06-10T21:01:44.534Z,12.02
2023-06-10T21:07:47.385Z,13.80
2023-06-10T21:13:49.718Z,14.03
2023-06-10T21:19:51.699Z,15.48
2023-06-10T21:25:53.215Z,15.03
2023-06-10T21:31:54.821Z,12.63
2023-06-10T21:37:56.465Z,12.85
2023-06-10T21:43:58.057Z,13.13
2023-06-10T21:49:59.629Z,15.35
2023-06-10T21:56:01.134Z,13.43
2023-06-10T22:02:02.811Z,14.50
2023-06-10T22:08:04.709Z,14.90
2023-06-10T22:14:06.309Z,12.83
2023-06-10T22:20:08.124Z,15.27
2023-06-10T22:26:09.698Z,12.53
2023-06-10T22:32:11.411Z,14.30
2023-06-10T22:38:12.941Z,13.10
2023-06-10T22:44:14.863Z,11.90
2023-06-10T22:50:16.603Z,12.93
2023-06-10T22:56:18.090Z,13.50
2023-06-10T23:02:19.671Z,11.05
2023-06-10T23:08:21.211Z,12.40
2023-06-10T23:14:22.772Z,15.10
2023-06-10T23:20:24.269Z,13.52
2023-06-10T23:26:27.671Z,9.37
2023-06-10T23:32:29.438Z,11.48
2023-06-10T23:38:31.021Z,13.80
2023-06-10T23:44:32.554Z,13.27
2023-06-10T23:50:36.998Z,11.57
2023-06-10T23:56:38.533Z,12.30
